Etusivu
METAR-TAF:

METAR-TAF

Lentoasemat :

Rota, Espanja

Leveyspiiri: 36-39N, Pituuspiiri: 006-21W, korkeus merenpinnasta: 26 m

Tämänhetkinen sää

Tämä raportti tehtiin 25 minuuttia sitten, kello 06.00 UTC
Tuuli 4 kn pohjoisen/luoteesta, vaihdellen luoteen ja pohjoisen/koillisen välillä
Lämpötila 9°C
Kosteus 81%
Ilmanpaine 1023 hPa
Näkyvyys 10 km tai enemmän
ei pilviä alle 1500 m:ssä eikä cumulonimbus-pilviä

METAR: LERT 270600Z 34004KT 310V030 CAVOK 09/06 Q1023 NOSIG

Aika: 07:25 (06:25 UTC)

Sääennuste

Tämä raportti tehtiin 1 tunti ja 25 minuuttia sitten, kello 05.00 UTC
Ennuste voimassa 27. päivästä klo 06 UTC - 27. päivään klo 15 UTC
Tuuli 9 kn pohjoisesta/koillisesta
Näkyvyys 10 km tai enemmän
ei pilviä alle 1500 m:ssä eikä cumulonimbus-pilviä

TAF: LERT 270500Z 2706/2715 02009KT CAVOK

Säähavainnot ja -ennusteet yli 4000 lentoasemalta (METAR- ja TAF-raportit).

Käytössä olevat sääasemat on merkitty karttaan keltaisilla ja punaisilla pisteillä.

Aseta hiiri pisteen päälle nähdäksesi sääaseman nimen.

Klikkaa sitten nähdäksesi säähavainnot ja -ennusteet.

Kartan vaihtaminen: klikkaa mustalla rastilla varustettuja vihreitä pisteitä, niin voit zoomata sisään; viivalla varustettua vihreää pistettä, niin voit zoomata ulos tai vihreitä nuolia, niin pääset viereisille kartoille.


METAR-TAF: